Time;durP1;ratioP1;P1;durP2;ratioP2;P2;SDS_P1;SDS_P2;PMS_P1;PMS_P2;Temp;Humidity;BMP_temperature;BMP_pressure;BME280_temperature;BME280_humidity;BME280_pressure;Samples;Min_cycle;Max_cycle;Signal;HPM_P1;HPM_P2
2022/01/24 00:01:17;;;;;;;8.85;4.13;;;6.60;99.90;;;;;;5004605;28;20572;-64
2022/01/24 00:03:43;;;;;;;14.57;5.18;;;6.60;99.90;;;;;;4997887;28;20031;-62
2022/01/24 00:06:12;;;;;;;11.82;5.55;;;6.60;99.90;;;;;;5004447;28;20482;-61
2022/01/24 00:08:38;;;;;;;10.93;4.75;;;6.50;99.90;;;;;;5002541;28;20038;-63
2022/01/24 00:11:09;;;;;;;12.88;4.50;;;6.60;99.90;;;;;;5003355;28;20027;-62
2022/01/24 00:16:35;;;;;;;10.15;4.90;;;6.50;99.90;;;;;;5001408;28;20022;-64
2022/01/24 00:26:57;;;;;;;12.70;4.80;;;6.60;99.90;;;;;;5000079;28;20037;-61
2022/01/24 00:29:25;;;;;;;14.52;6.10;;;6.50;99.90;;;;;;5003583;28;20034;-62
2022/01/24 00:31:52;;;;;;;17.13;5.78;;;6.50;99.90;;;;;;5001590;28;20038;-62
2022/01/24 00:34:19;;;;;;;12.90;4.78;;;6.40;99.90;;;;;;5003859;28;20033;-62
2022/01/24 00:36:48;;;;;;;12.10;5.13;;;6.40;99.90;;;;;;5001486;28;20471;-62
2022/01/24 00:39:15;;;;;;;16.08;5.03;;;6.40;99.90;;;;;;4996449;28;20026;-62
2022/01/24 00:41:51;;;;;;;9.02;4.32;;;6.40;99.90;;;;;;5003752;28;20033;-62
2022/01/24 00:47:05;;;;;;;12.45;4.63;;;6.50;99.90;;;;;;5000398;28;20034;-61
2022/01/24 00:54:52;;;;;;;15.02;5.63;;;6.50;99.90;;;;;;4998034;28;20529;-63
2022/01/24 00:57:19;;;;;;;13.80;5.85;;;6.50;99.90;;;;;;5003686;28;20580;-62
2022/01/24 00:59:46;;;;;;;15.55;6.60;;;6.50;99.90;;;;;;5000504;28;20039;-62
2022/01/24 01:02:12;;;;;;;16.80;6.53;;;6.50;99.90;;;;;;5003624;28;20509;-63
2022/01/24 01:07:26;;;;;;;12.95;5.43;;;6.50;99.90;;;;;;4996807;28;20037;-63
2022/01/24 01:20:44;;;;;;;17.95;6.40;;;6.50;99.90;;;;;;5001791;28;20053;-62
2022/01/24 01:23:10;;;;;;;16.25;6.75;;;6.50;99.90;;;;;;5000233;28;20045;-61
2022/01/24 01:25:38;;;;;;;14.48;5.95;;;6.50;99.90;;;;;;5002360;28;20042;-63
2022/01/24 01:28:03;;;;;;;17.83;6.60;;;6.50;99.90;;;;;;5001158;28;20161;-62
2022/01/24 01:30:38;;;;;;;12.55;5.13;;;6.40;99.90;;;;;;5001218;28;20794;-62
2022/01/24 01:33:57;;;;;;;15.50;6.15;;;6.40;99.90;;;;;;5000940;28;20038;-62
2022/01/24 01:36:18;;;;;;;11.32;5.25;;;6.40;99.90;;;;;;4993559;28;20581;-64
2022/01/24 01:52:32;;;;;;;15.15;6.18;;;6.30;99.90;;;;;;5002762;28;20130;-61
2022/01/24 01:57:32;;;;;;;14.02;6.85;;;6.20;99.90;;;;;;4999995;28;20076;-62
2022/01/24 01:59:58;;;;;;;12.98;5.03;;;6.20;99.90;;;;;;5001275;28;20061;-61
2022/01/24 02:02:23;;;;;;;14.60;5.93;;;6.30;99.90;;;;;;5001040;28;20030;-63
2022/01/24 02:04:49;;;;;;;13.98;4.97;;;6.20;99.90;;;;;;5000261;28;20034;-62
2022/01/24 02:07:16;;;;;;;14.75;5.80;;;6.30;99.90;;;;;;5002221;28;20585;-62
2022/01/24 02:09:44;;;;;;;13.82;6.10;;;6.30;99.90;;;;;;4999441;28;20050;-62
2022/01/24 02:12:11;;;;;;;13.25;5.68;;;6.30;99.90;;;;;;5002407;28;20030;-62
2022/01/24 02:14:42;;;;;;;17.15;6.82;;;6.30;99.90;;;;;;4999086;28;20509;-63
2022/01/24 02:17:14;;;;;;;13.02;6.13;;;6.30;99.90;;;;;;5002732;28;20034;-62
2022/01/24 02:25:22;;;;;;;14.77;6.60;;;6.20;99.90;;;;;;5002817;28;20035;-62
2022/01/24 02:27:46;;;;;;;16.67;5.80;;;6.20;99.90;;;;;;4999842;28;20038;-62
2022/01/24 02:32:40;;;;;;;16.33;6.57;;;6.20;99.90;;;;;;4994520;28;20050;-62
2022/01/24 02:35:08;;;;;;;16.25;7.30;;;6.10;99.90;;;;;;5002465;28;20482;-62
2022/01/24 02:37:33;;;;;;;15.10;6.65;;;6.10;99.90;;;;;;4998359;28;20038;-62
2022/01/24 02:40:07;;;;;;;16.67;6.50;;;6.10;99.90;;;;;;5001064;28;20049;-62
2022/01/24 02:53:14;;;;;;;20.88;8.90;;;6.20;99.90;;;;;;5000880;28;20464;-64
2022/01/24 02:55:41;;;;;;;21.23;8.88;;;6.20;99.90;;;;;;4998203;28;20497;-62
2022/01/24 02:58:07;;;;;;;19.85;8.30;;;6.20;99.90;;;;;;5001605;28;20026;-62
2022/01/24 03:00:35;;;;;;;22.80;9.27;;;6.20;99.90;;;;;;4998128;28;20477;-62
2022/01/24 03:03:01;;;;;;;18.83;8.32;;;6.20;99.90;;;;;;5001427;28;20033;-63
2022/01/24 03:05:26;;;;;;;19.50;7.43;;;6.20;99.90;;;;;;4997776;28;20536;-62
2022/01/24 03:07:52;;;;;;;22.63;9.70;;;6.10;99.90;;;;;;4997155;28;20046;-61
2022/01/24 03:10:25;;;;;;;22.73;8.90;;;6.10;99.90;;;;;;4999991;28;20034;-63
2022/01/24 03:13:09;;;;;;;18.48;8.20;;;6.20;99.90;;;;;;5000009;28;20443;-61
2022/01/24 03:15:36;;;;;;;20.65;9.20;;;6.10;99.90;;;;;;4994467;28;20034;-62
2022/01/24 03:18:02;;;;;;;28.38;9.73;;;6.10;99.90;;;;;;5001430;28;20038;-62
2022/01/24 03:20:28;;;;;;;21.70;8.77;;;6.20;99.90;;;;;;4998481;28;20041;-61
2022/01/24 03:22:53;;;;;;;21.80;9.48;;;6.10;99.90;;;;;;4999966;28;20061;-63
2022/01/24 03:25:19;;;;;;;22.17;10.20;;;6.10;99.90;;;;;;4999750;28;20498;-62
2022/01/24 03:27:44;;;;;;;23.15;9.35;;;6.10;99.90;;;;;;5005872;28;20034;-62
2022/01/24 03:30:10;;;;;;;26.98;10.10;;;6.10;99.90;;;;;;5001072;28;20034;-62
2022/01/24 03:32:36;;;;;;;27.40;10.65;;;6.10;99.90;;;;;;4996911;28;20030;-62
2022/01/24 03:35:07;;;;;;;28.08;11.75;;;6.10;99.90;;;;;;4993867;28;20038;-63
2022/01/24 03:37:36;;;;;;;31.73;12.45;;;6.10;99.90;;;;;;4996964;28;20406;-63
2022/01/24 03:40:03;;;;;;;34.70;11.68;;;6.20;99.90;;;;;;5001246;28;20068;-62
2022/01/24 03:42:28;;;;;;;28.20;11.93;;;6.10;99.90;;;;;;5000404;28;20035;-62
2022/01/24 03:44:58;;;;;;;25.73;11.85;;;6.10;99.90;;;;;;4993631;28;20043;-62
2022/01/24 03:47:42;;;;;;;33.05;11.30;;;6.10;99.90;;;;;;4998583;28;20030;-62
2022/01/24 03:50:13;;;;;;;31.75;11.82;;;6.10;99.90;;;;;;4994696;28;20521;-64
2022/01/24 03:52:39;;;;;;;29.30;12.32;;;6.10;99.90;;;;;;5000596;28;20045;-62
2022/01/24 03:55:06;;;;;;;28.00;11.98;;;6.00;99.90;;;;;;4997977;28;20041;-62
2022/01/24 03:57:31;;;;;;;28.80;12.43;;;6.00;99.90;;;;;;5000955;28;20104;-62
2022/01/24 03:59:57;;;;;;;26.42;11.27;;;6.00;99.90;;;;;;4998157;28;20038;-62
2022/01/24 04:02:26;;;;;;;32.88;13.95;;;6.00;99.90;;;;;;5006828;28;20093;-62
2022/01/24 04:04:53;;;;;;;33.00;12.98;;;6.00;99.90;;;;;;4999150;28;20149;-66
2022/01/24 04:07:18;;;;;;;32.60;13.13;;;5.90;99.90;;;;;;4999414;28;20057;-63
2022/01/24 04:09:44;;;;;;;28.52;12.38;;;6.00;99.90;;;;;;4998634;28;20072;-62
2022/01/24 04:12:12;;;;;;;34.88;12.77;;;5.90;99.90;;;;;;4996909;28;20046;-62
2022/01/24 04:22:33;;;;;;;35.22;14.57;;;6.00;99.90;;;;;;4998961;28;20119;-64
2022/01/24 04:25:01;;;;;;;34.47;14.45;;;6.00;99.90;;;;;;5000965;28;20091;-62
2022/01/24 04:27:28;;;;;;;33.78;14.25;;;5.90;99.90;;;;;;4997976;28;20445;-62
2022/01/24 04:29:54;;;;;;;41.75;15.93;;;6.00;99.90;;;;;;4998065;28;20042;-62
2022/01/24 04:32:20;;;;;;;33.65;15.57;;;5.90;99.90;;;;;;4998919;28;20402;-63
2022/01/24 04:34:46;;;;;;;35.53;15.88;;;5.90;99.90;;;;;;4999276;28;20040;-63
2022/01/24 04:37:13;;;;;;;35.10;14.07;;;6.00;99.90;;;;;;4998013;28;20038;-62
2022/01/24 04:39:39;;;;;;;40.15;14.63;;;5.90;99.90;;;;;;5000044;28;20038;-63
2022/01/24 04:42:16;;;;;;;34.17;14.80;;;6.00;99.90;;;;;;5016283;28;20049;-61
2022/01/24 04:44:55;;;;;;;35.78;14.93;;;6.00;99.90;;;;;;4999019;28;20042;-63
2022/01/24 04:54:56;;;;;;;33.80;14.90;;;5.90;99.90;;;;;;5003286;28;20062;-62
2022/01/24 04:57:24;;;;;;;33.72;14.38;;;5.80;99.90;;;;;;5001184;28;20493;-62
2022/01/24 04:59:51;;;;;;;35.88;14.73;;;5.80;99.90;;;;;;5002768;28;20088;-61
2022/01/24 05:02:18;;;;;;;35.40;15.63;;;5.80;99.90;;;;;;5001825;28;20125;-62
2022/01/24 05:04:44;;;;;;;33.88;14.10;;;5.80;99.90;;;;;;5001806;28;20426;-62
2022/01/24 05:07:10;;;;;;;38.63;16.50;;;5.80;99.90;;;;;;5003130;28;20390;-62
2022/01/24 05:09:41;;;;;;;36.38;15.52;;;5.80;99.90;;;;;;4996398;28;20031;-63
2022/01/24 05:25:53;;;;;;;35.50;13.40;;;5.80;99.90;;;;;;5003276;28;20050;-62
2022/01/24 05:28:20;;;;;;;38.92;15.20;;;5.80;99.90;;;;;;5000876;28;20044;-64
2022/01/24 05:30:46;;;;;;;34.25;15.10;;;5.80;99.90;;;;;;4998400;28;20122;-62
2022/01/24 05:33:12;;;;;;;35.92;15.35;;;5.80;99.90;;;;;;4996122;28;20041;-63
2022/01/24 05:35:38;;;;;;;38.47;14.57;;;5.80;99.90;;;;;;4996040;28;20038;-61
2022/01/24 05:38:04;;;;;;;38.38;16.02;;;5.80;99.90;;;;;;4999789;28;20044;-63
2022/01/24 05:40:30;;;;;;;35.08;13.82;;;5.80;99.90;;;;;;4998168;28;20863;-62
2022/01/24 05:42:55;;;;;;;37.67;16.38;;;5.70;99.90;;;;;;5003052;28;20042;-63
2022/01/24 05:45:21;;;;;;;31.00;14.38;;;5.70;99.90;;;;;;4999405;28;20036;-61
2022/01/24 05:47:47;;;;;;;35.75;15.40;;;5.70;99.90;;;;;;5001848;28;20045;-62
2022/01/24 05:50:12;;;;;;;37.55;15.05;;;5.80;99.90;;;;;;5001176;28;20122;-64
2022/01/24 05:52:38;;;;;;;34.60;14.55;;;5.70;99.90;;;;;;5002646;28;20037;-63
2022/01/24 05:55:05;;;;;;;30.70;13.23;;;5.70;99.90;;;;;;5004360;28;20057;-63
2022/01/24 05:57:30;;;;;;;32.28;13.60;;;5.80;99.90;;;;;;4995668;28;20045;-62
2022/01/24 05:59:56;;;;;;;27.27;12.70;;;5.80;99.90;;;;;;4998603;28;20038;-62
2022/01/24 06:02:22;;;;;;;34.60;15.80;;;5.80;99.90;;;;;;4996972;28;20788;-61
2022/01/24 06:04:48;;;;;;;35.67;14.35;;;5.70;99.90;;;;;;4991881;28;20042;-62
2022/01/24 06:07:13;;;;;;;30.25;13.60;;;5.70;99.90;;;;;;4999294;28;20026;-62
2022/01/24 06:09:39;;;;;;;30.63;13.10;;;5.70;99.90;;;;;;4997831;28;20042;-62
2022/01/24 06:12:05;;;;;;;27.58;13.23;;;5.70;99.90;;;;;;4994806;28;20034;-62
2022/01/24 06:14:31;;;;;;;25.30;10.95;;;5.70;99.90;;;;;;4998503;28;20100;-62
2022/01/24 06:16:56;;;;;;;33.08;13.88;;;5.70;99.90;;;;;;4998177;28;20529;-63
2022/01/24 06:19:22;;;;;;;24.73;11.32;;;5.60;99.90;;;;;;4995969;28;20149;-64
2022/01/24 06:21:48;;;;;;;29.65;13.10;;;5.70;99.90;;;;;;4997984;28;20040;-63
2022/01/24 06:24:14;;;;;;;29.20;12.95;;;5.70;99.90;;;;;;4995769;28;20038;-62
2022/01/24 06:26:40;;;;;;;32.00;13.60;;;5.60;99.90;;;;;;4995600;28;20439;-62
2022/01/24 06:29:06;;;;;;;28.40;13.18;;;5.60;99.90;;;;;;4995332;28;20026;-62
2022/01/24 06:31:32;;;;;;;34.67;14.02;;;5.60;99.90;;;;;;4998426;28;20374;-62
2022/01/24 06:33:58;;;;;;;28.50;12.07;;;5.60;99.90;;;;;;4993599;28;20039;-62
2022/01/24 06:36:24;;;;;;;30.60;13.98;;;5.60;99.90;;;;;;4995587;28;20041;-63
2022/01/24 06:38:50;;;;;;;35.85;14.55;;;5.60;99.90;;;;;;4996790;28;20117;-62
2022/01/24 06:41:21;;;;;;;31.33;12.95;;;5.60;99.90;;;;;;4994608;28;20121;-61
2022/01/24 06:43:47;;;;;;;29.10;12.50;;;5.60;99.90;;;;;;4992748;28;20099;-62
2022/01/24 06:46:13;;;;;;;32.67;12.82;;;5.60;99.90;;;;;;4998989;28;20453;-62
2022/01/24 06:48:38;;;;;;;30.85;13.00;;;5.70;99.90;;;;;;4996173;28;20034;-62
2022/01/24 06:51:10;;;;;;;34.80;14.77;;;5.70;99.90;;;;;;4992607;28;20057;-62
2022/01/24 06:53:39;;;;;;;32.63;14.73;;;5.70;99.90;;;;;;4994194;28;20045;-62
2022/01/24 06:56:06;;;;;;;33.45;13.23;;;5.70;99.90;;;;;;4997238;28;20105;-63
2022/01/24 06:58:32;;;;;;;24.52;11.82;;;5.70;99.90;;;;;;4992208;28;20038;-62
2022/01/24 07:00:58;;;;;;;28.02;12.65;;;5.70;99.90;;;;;;4994661;28;20038;-61
2022/01/24 07:03:24;;;;;;;31.67;13.20;;;5.80;99.90;;;;;;4996761;28;20042;-62
2022/01/24 07:05:49;;;;;;;30.75;13.45;;;5.70;99.90;;;;;;4994113;28;20030;-62
2022/01/24 07:08:15;;;;;;;29.25;13.13;;;5.70;99.90;;;;;;4989805;28;20072;-63
2022/01/24 07:10:41;;;;;;;30.42;13.65;;;5.70;99.90;;;;;;4998070;28;20053;-62
2022/01/24 07:13:06;;;;;;;30.75;13.00;;;5.70;99.90;;;;;;4995037;28;20034;-66
2022/01/24 07:15:44;;;;;;;31.55;13.77;;;5.70;99.90;;;;;;4991467;28;20038;-62
2022/01/24 07:20:57;;;;;;;31.23;13.32;;;5.60;99.90;;;;;;4994936;28;20517;-64
2022/01/24 07:23:23;;;;;;;25.08;12.15;;;5.60;99.90;;;;;;4995449;28;20044;-63
2022/01/24 07:25:49;;;;;;;40.88;14.38;;;5.60;99.90;;;;;;4991937;28;20042;-62
2022/01/24 07:28:16;;;;;;;32.30;12.52;;;5.60;99.90;;;;;;5010633;28;20038;-68
2022/01/24 07:30:42;;;;;;;29.90;13.10;;;5.60;99.90;;;;;;4994506;28;20034;-62
2022/01/24 07:33:07;;;;;;;28.35;12.82;;;5.60;99.90;;;;;;4993279;28;20030;-62
2022/01/24 07:35:33;;;;;;;29.17;12.20;;;5.60;99.90;;;;;;4995587;28;20410;-61
2022/01/24 07:37:59;;;;;;;24.55;10.60;;;5.60;99.90;;;;;;4996860;28;20048;-62
2022/01/24 07:40:25;;;;;;;25.45;11.43;;;5.60;99.90;;;;;;4992385;28;20512;-62
2022/01/24 07:45:17;;;;;;;26.60;11.63;;;5.50;99.90;;;;;;4996073;28;20046;-63
2022/01/24 07:47:42;;;;;;;31.48;11.43;;;5.60;99.90;;;;;;4993799;28;20058;-61
2022/01/24 07:50:09;;;;;;;26.88;12.23;;;5.60;99.90;;;;;;4992938;28;20125;-63
2022/01/24 07:52:35;;;;;;;23.55;12.25;;;5.60;99.90;;;;;;4991760;28;20057;-62
2022/01/24 07:55:01;;;;;;;26.40;12.07;;;5.60;99.90;;;;;;4989562;28;20505;-64
2022/01/24 07:57:27;;;;;;;22.55;10.50;;;5.60;99.90;;;;;;4993124;28;20034;-62
2022/01/24 07:59:52;;;;;;;25.40;11.30;;;5.60;99.90;;;;;;4997244;28;20387;-61
2022/01/24 08:02:18;;;;;;;25.17;12.05;;;5.60;99.90;;;;;;4994057;28;20066;-62
2022/01/24 08:04:43;;;;;;;25.17;11.48;;;5.60;99.90;;;;;;4993976;28;20033;-63
2022/01/24 08:07:09;;;;;;;22.83;11.52;;;5.60;99.90;;;;;;4995082;28;20620;-62
2022/01/24 08:09:34;;;;;;;24.92;12.18;;;5.70;99.90;;;;;;4995883;28;20026;-60
2022/01/24 08:12:01;;;;;;;21.20;10.15;;;5.70;99.90;;;;;;4990617;28;20073;-63
2022/01/24 08:14:27;;;;;;;26.08;11.18;;;5.60;99.90;;;;;;4993651;28;20027;-62
2022/01/24 08:16:53;;;;;;;24.60;11.93;;;5.60;99.90;;;;;;4994254;28;20480;-62
2022/01/24 08:19:19;;;;;;;23.50;11.05;;;5.60;99.90;;;;;;4995847;28;20042;-62
2022/01/24 08:21:45;;;;;;;24.58;10.65;;;5.60;99.90;;;;;;4995621;28;20034;-62
2022/01/24 08:24:12;;;;;;;22.65;10.13;;;5.70;99.90;;;;;;4997444;28;20027;-62
2022/01/24 08:26:37;;;;;;;25.20;10.63;;;5.60;99.90;;;;;;4996050;28;20038;-61
2022/01/24 08:29:04;;;;;;;18.77;9.23;;;5.60;99.90;;;;;;4994848;28;20031;-62
2022/01/24 08:31:30;;;;;;;29.75;10.13;;;5.70;99.90;;;;;;4999807;28;20038;-63
2022/01/24 08:33:56;;;;;;;22.08;10.57;;;5.60;99.90;;;;;;5001066;28;20042;-62
2022/01/24 08:36:21;;;;;;;22.42;10.13;;;5.60;99.90;;;;;;4996559;28;20045;-62
2022/01/24 08:38:50;;;;;;;20.40;9.43;;;5.60;99.90;;;;;;4998614;28;20031;-61
2022/01/24 08:41:24;;;;;;;23.45;9.82;;;5.50;99.90;;;;;;4999461;28;20493;-62
2022/01/24 08:43:57;;;;;;;22.88;9.82;;;5.50;99.90;;;;;;4998934;28;20610;-62
2022/01/24 08:46:23;;;;;;;23.88;10.77;;;5.60;99.90;;;;;;4998477;28;20121;-63
2022/01/24 08:48:49;;;;;;;27.05;11.20;;;5.60;99.90;;;;;;4997596;28;20542;-62
2022/01/24 08:51:15;;;;;;;23.38;11.05;;;5.60;99.90;;;;;;4997759;28;20034;-62
2022/01/24 08:53:41;;;;;;;24.48;11.20;;;5.60;99.90;;;;;;4992924;28;20111;-62
2022/01/24 08:56:07;;;;;;;25.77;11.85;;;5.60;99.90;;;;;;4997831;28;20062;-62
2022/01/24 08:58:34;;;;;;;24.23;11.32;;;5.60;99.90;;;;;;4999277;28;20030;-61
2022/01/24 09:01:00;;;;;;;25.50;11.15;;;5.60;99.90;;;;;;4996756;28;20037;-63
2022/01/24 09:03:29;;;;;;;26.73;11.77;;;5.60;99.90;;;;;;4996573;28;20026;-62
2022/01/24 09:05:57;;;;;;;25.35;11.88;;;5.70;99.90;;;;;;5000233;28;20036;-62
2022/01/24 09:08:23;;;;;;;29.25;12.20;;;5.70;99.90;;;;;;4994185;28;20034;-63
2022/01/24 09:10:51;;;;;;;25.15;12.18;;;5.70;99.90;;;;;;4992909;28;20078;-62
2022/01/24 09:13:19;;;;;;;27.83;11.57;;;5.70;99.90;;;;;;4998920;28;20048;-64
2022/01/24 09:15:45;;;;;;;25.05;11.13;;;5.80;99.90;;;;;;4995539;28;20064;-62
2022/01/24 09:18:10;;;;;;;24.60;11.68;;;5.70;99.90;;;;;;4996780;28;20731;-64
2022/01/24 09:20:38;;;;;;;31.75;14.52;;;5.70;99.90;;;;;;4995841;28;20054;-61
2022/01/24 09:23:05;;;;;;;25.63;12.57;;;5.70;99.90;;;;;;4998678;28;20038;-62
2022/01/24 09:25:31;;;;;;;30.98;12.88;;;5.70;99.90;;;;;;4996218;28;20517;-64
2022/01/24 09:27:57;;;;;;;25.40;11.65;;;5.80;99.90;;;;;;4996056;28;20038;-63
2022/01/24 09:30:23;;;;;;;26.05;12.30;;;5.70;99.90;;;;;;5000508;28;20154;-63
2022/01/24 09:32:51;;;;;;;28.27;13.27;;;5.80;99.90;;;;;;5000242;28;20041;-62
2022/01/24 09:35:17;;;;;;;30.73;14.27;;;5.90;99.90;;;;;;4997066;28;20034;-65
2022/01/24 09:37:46;;;;;;;31.35;13.73;;;5.90;99.90;;;;;;4999863;28;20065;-63
2022/01/24 09:40:14;;;;;;;31.20;14.27;;;6.00;99.90;;;;;;5000416;28;20046;-61
2022/01/24 09:42:43;;;;;;;31.58;13.52;;;5.90;99.90;;;;;;4997508;28;20034;-64
2022/01/24 09:45:10;;;;;;;32.70;13.77;;;5.90;99.90;;;;;;4996448;28;20046;-62
2022/01/24 09:47:37;;;;;;;33.20;14.25;;;5.90;99.90;;;;;;4994415;28;20041;-62
2022/01/24 09:50:05;;;;;;;26.00;12.35;;;5.80;99.90;;;;;;4998953;28;20074;-63
2022/01/24 09:52:31;;;;;;;30.95;14.57;;;5.90;99.90;;;;;;4993854;28;20026;-62
2022/01/24 09:54:57;;;;;;;34.30;14.73;;;5.80;99.90;;;;;;4999153;28;20040;-61
2022/01/24 09:57:23;;;;;;;33.17;14.70;;;5.90;99.90;;;;;;4996437;28;20145;-62
2022/01/24 09:59:49;;;;;;;31.95;14.65;;;5.80;99.90;;;;;;4996404;28;20033;-62
2022/01/24 10:02:14;;;;;;;33.35;15.25;;;5.90;99.90;;;;;;4999135;28;20062;-63
2022/01/24 10:04:40;;;;;;;31.42;14.20;;;5.90;99.90;;;;;;4997852;28;20508;-63
2022/01/24 10:07:15;;;;;;;30.55;13.93;;;5.90;99.90;;;;;;4994750;28;20076;-62
2022/01/24 10:09:53;;;;;;;35.05;16.33;;;5.90;99.90;;;;;;4991650;28;20038;-62
2022/01/24 10:17:54;;;;;;;31.50;13.10;;;5.90;99.90;;;;;;4995344;28;20044;-62
2022/01/24 10:20:25;;;;;;;30.48;13.13;;;5.90;99.90;;;;;;4992737;28;20728;-61
2022/01/24 10:23:09;;;;;;;34.90;13.98;;;5.90;99.90;;;;;;4998049;28;20068;-61
2022/01/24 10:26:00;;;;;;;24.13;11.18;;;6.00;99.90;;;;;;4996491;28;20054;-63
2022/01/24 10:28:30;;;;;;;28.20;11.07;;;6.00;99.90;;;;;;4994501;28;20053;-64
2022/01/24 10:31:07;;;;;;;;;;;6.00;99.90;;;;;;4992239;28;20038;-63
2022/01/24 10:33:52;;;;;;;29.13;12.23;;;6.00;99.90;;;;;;4996440;28;19917;-62
2022/01/24 10:36:36;;;;;;;30.10;13.05;;;5.90;99.90;;;;;;4996593;28;20046;-64
2022/01/24 10:39:14;;;;;;;26.75;12.25;;;6.00;99.90;;;;;;4997056;28;20046;-61
2022/01/24 10:41:55;;;;;;;30.02;11.73;;;6.00;99.90;;;;;;4994320;28;20033;-64
2022/01/24 10:44:31;;;;;;;;;;;5.90;99.90;;;;;;4993679;28;20614;-62
2022/01/24 10:47:17;;;;;;;23.35;10.63;;;6.00;99.90;;;;;;4999225;28;20285;-64
2022/01/24 10:49:44;;;;;;;22.38;11.02;;;6.10;99.90;;;;;;4996517;28;20038;-63
2022/01/24 10:52:18;;;;;;;20.75;9.50;;;6.00;99.90;;;;;;4996387;28;20034;-63
2022/01/24 10:54:45;;;;;;;25.25;11.02;;;6.00;99.90;;;;;;4992444;28;20042;-63
2022/01/24 10:57:21;;;;;;;21.48;9.75;;;6.10;99.90;;;;;;4997564;28;20026;-63
2022/01/24 10:59:47;;;;;;;17.20;8.63;;;6.10;99.90;;;;;;4994805;28;20038;-69
2022/01/24 11:02:16;;;;;;;20.20;8.13;;;6.20;99.90;;;;;;4994992;28;20117;-64
2022/01/24 11:04:41;;;;;;;19.30;9.15;;;6.20;99.90;;;;;;4996233;28;20032;-65
2022/01/24 11:07:07;;;;;;;20.30;9.30;;;6.10;99.90;;;;;;4989610;28;20494;-65
2022/01/24 11:09:35;;;;;;;19.35;7.95;;;6.10;99.90;;;;;;4992684;28;20737;-66
2022/01/24 11:12:08;;;;;;;17.00;7.43;;;6.10;99.90;;;;;;4992071;28;20561;-64
2022/01/24 11:14:35;;;;;;;16.63;8.57;;;6.10;99.90;;;;;;4995904;28;20061;-64
2022/01/24 11:17:02;;;;;;;17.83;8.73;;;6.20;99.90;;;;;;4996266;28;20033;-63
2022/01/24 11:19:51;;;;;;;17.83;7.95;;;6.20;99.90;;;;;;4991411;28;20042;-63
2022/01/24 11:22:23;;;;;;;20.52;8.05;;;6.20;99.90;;;;;;4987253;28;20026;-64
2022/01/24 11:24:58;;;;;;;16.50;8.52;;;6.20;99.90;;;;;;4995561;28;20033;-65
2022/01/24 11:27:24;;;;;;;15.95;7.97;;;6.20;99.90;;;;;;4989851;28;20482;-64
2022/01/24 11:29:52;;;;;;;18.80;9.07;;;6.20;99.90;;;;;;4989101;28;20030;-61
2022/01/24 11:32:30;;;;;;;20.83;9.95;;;6.20;99.90;;;;;;4990270;28;20038;-68
2022/01/24 11:34:57;;;;;;;17.17;8.70;;;6.20;99.90;;;;;;4992542;28;20038;-62
2022/01/24 11:37:44;;;;;;;20.67;10.35;;;6.30;99.90;;;;;;4990108;28;20038;-63
2022/01/24 11:40:16;;;;;;;16.67;7.75;;;6.30;99.90;;;;;;4986219;28;20034;-62
2022/01/24 11:42:46;;;;;;;17.73;8.15;;;6.30;99.90;;;;;;4993715;28;20034;-62
2022/01/24 11:45:15;;;;;;;19.95;9.05;;;6.30;99.90;;;;;;4993896;28;20034;-63
2022/01/24 11:47:44;;;;;;;17.05;8.02;;;6.30;99.90;;;;;;4996201;28;20034;-62
2022/01/24 11:50:31;;;;;;;15.85;8.05;;;6.30;99.90;;;;;;4993523;28;20034;-63
2022/01/24 11:52:58;;;;;;;21.23;9.02;;;6.30;99.90;;;;;;4993686;28;20034;-63
2022/01/24 11:55:34;;;;;;;16.95;8.20;;;6.50;99.90;;;;;;5000576;28;20038;-63
2022/01/24 11:58:05;;;;;;;16.05;8.02;;;6.50;99.90;;;;;;4998060;28;20425;-63
2022/01/24 12:00:37;;;;;;;;;;;6.40;99.90;;;;;;4997263;28;20379;-62
2022/01/24 12:03:15;;;;;;;17.80;8.07;;;6.40;99.90;;;;;;5001729;28;19921;-62
2022/01/24 12:05:43;;;;;;;17.33;8.38;;;6.50;99.90;;;;;;4996855;28;20033;-61
2022/01/24 12:08:11;;;;;;;20.38;8.13;;;6.40;99.90;;;;;;4995025;28;20449;-62
2022/01/24 12:10:42;;;;;;;14.35;6.95;;;6.40;99.90;;;;;;4999975;28;20082;-62
2022/01/24 12:13:09;;;;;;;15.73;7.25;;;6.40;99.90;;;;;;5000531;28;20397;-63
2022/01/24 12:15:40;;;;;;;17.60;7.95;;;6.50;99.90;;;;;;4997985;28;20490;-62
2022/01/24 12:18:26;;;;;;;18.13;8.23;;;6.50;99.90;;;;;;4993406;28;20046;-62
2022/01/24 12:20:57;;;;;;;20.08;8.43;;;6.60;99.90;;;;;;4998753;28;20441;-62
2022/01/24 12:23:27;;;;;;;;;;;6.50;99.90;;;;;;4999728;28;20463;-62
2022/01/24 12:25:56;;;;;;;15.40;7.20;;;6.50;99.90;;;;;;4995356;28;20286;-62
2022/01/24 12:28:29;;;;;;;16.73;7.95;;;6.40;99.90;;;;;;4997499;28;20737;-62
2022/01/24 12:31:03;;;;;;;17.83;7.85;;;6.40;99.90;;;;;;5000480;28;20035;-62
2022/01/24 12:33:28;;;;;;;15.85;7.70;;;6.40;99.90;;;;;;4992221;28;20486;-62
2022/01/24 12:35:54;;;;;;;16.60;7.45;;;6.40;99.90;;;;;;4995598;28;20034;-62
2022/01/24 12:38:20;;;;;;;13.20;6.80;;;6.40;99.90;;;;;;4999254;28;20030;-63
2022/01/24 12:40:45;;;;;;;16.38;7.22;;;6.50;99.90;;;;;;4998879;28;20057;-62
2022/01/24 12:43:19;;;;;;;14.77;7.32;;;6.60;99.90;;;;;;4995183;28;20049;-63
2022/01/24 12:48:31;;;;;;;16.42;7.32;;;6.50;99.90;;;;;;4997962;28;20041;-62
2022/01/24 12:50:56;;;;;;;19.17;7.38;;;6.60;99.90;;;;;;4995769;28;20453;-63
2022/01/24 12:53:22;;;;;;;15.25;6.78;;;6.50;99.90;;;;;;4998227;28;20033;-63
2022/01/24 12:56:03;;;;;;;16.60;7.30;;;6.50;99.90;;;;;;4996675;28;20049;-62
2022/01/24 12:58:37;;;;;;;23.08;8.88;;;6.50;99.90;;;;;;4997004;28;20041;-62
2022/01/24 13:01:25;;;;;;;20.20;7.97;;;6.50;99.90;;;;;;4999475;28;20399;-62
2022/01/24 13:03:53;;;;;;;14.15;7.13;;;6.40;99.90;;;;;;4996674;28;20038;-62
2022/01/24 13:06:19;;;;;;;13.05;7.10;;;6.50;99.90;;;;;;4997306;28;20030;-62
2022/01/24 13:09:10;;;;;;;15.25;7.65;;;6.50;99.90;;;;;;5001184;28;20077;-62
2022/01/24 13:11:48;;;;;;;17.77;8.02;;;6.40;99.90;;;;;;4995542;28;20040;-62
2022/01/24 13:14:28;;;;;;;18.08;7.63;;;6.40;99.90;;;;;;4995450;28;20030;-61
2022/01/24 13:22:41;;;;;;;18.73;8.70;;;6.50;99.90;;;;;;4998703;28;20517;-62
2022/01/24 13:25:47;;;;;;;19.65;8.73;;;6.40;99.90;;;;;;4994369;28;20470;-62
2022/01/24 13:28:17;;;;;;;14.30;6.97;;;6.40;99.90;;;;;;4988979;28;20528;-63
2022/01/24 13:30:46;;;;;;;17.17;7.50;;;6.40;99.90;;;;;;4997550;28;20050;-63
2022/01/24 13:33:22;;;;;;;17.70;8.35;;;6.40;99.90;;;;;;5000531;28;20045;-63
2022/01/24 13:35:50;;;;;;;19.70;8.43;;;6.40;99.90;;;;;;4995706;28;20046;-63
2022/01/24 13:38:20;;;;;;;16.77;8.40;;;6.40;99.90;;;;;;4993054;28;20828;-63
2022/01/24 13:41:08;;;;;;;17.80;7.87;;;6.40;99.90;;;;;;4999979;28;20096;-63
2022/01/24 13:43:45;;;;;;;15.88;8.05;;;6.50;99.90;;;;;;4997902;28;20041;-62
2022/01/24 13:46:18;;;;;;;16.50;8.63;;;6.40;99.90;;;;;;4996689;28;20426;-62
2022/01/24 13:48:49;;;;;;;15.57;6.90;;;6.40;99.90;;;;;;4995631;28;20478;-61
2022/01/24 13:51:18;;;;;;;15.27;7.63;;;6.40;99.90;;;;;;5003283;28;20033;-63
2022/01/24 13:53:46;;;;;;;15.30;7.43;;;6.50;99.90;;;;;;4997315;28;20037;-62
2022/01/24 13:56:22;;;;;;;13.50;6.60;;;6.50;99.90;;;;;;4994448;28;20061;-62
2022/01/24 13:59:08;;;;;;;17.35;7.82;;;6.40;99.90;;;;;;5003693;28;20062;-62
2022/01/24 14:01:35;;;;;;;17.00;7.45;;;6.40;99.90;;;;;;4998740;28;20026;-62
2022/01/24 14:04:04;;;;;;;15.25;7.22;;;6.40;99.90;;;;;;4996962;28;20038;-62
2022/01/24 14:06:32;;;;;;;12.80;6.50;;;6.50;99.90;;;;;;4996232;28;20088;-61
2022/01/24 14:09:11;;;;;;;16.35;7.32;;;6.40;99.90;;;;;;4999896;28;20117;-64
2022/01/24 14:11:45;;;;;;;14.98;7.25;;;6.40;99.90;;;;;;4997124;28;20041;-64
2022/01/24 14:14:14;;;;;;;14.63;7.75;;;6.30;99.90;;;;;;4997222;28;20093;-62
2022/01/24 14:19:12;;;;;;;13.60;6.97;;;6.20;99.90;;;;;;4999056;28;20042;-64
2022/01/24 14:21:38;;;;;;;18.50;7.45;;;6.20;99.90;;;;;;4993159;28;20047;-62
2022/01/24 14:24:07;;;;;;;16.75;7.30;;;6.20;99.90;;;;;;4992520;28;20030;-63
2022/01/24 14:26:45;;;;;;;16.50;7.97;;;6.20;99.90;;;;;;4998514;28;20129;-63
2022/01/24 14:29:13;;;;;;;15.48;7.90;;;6.20;99.90;;;;;;5000301;28;20030;-62
2022/01/24 14:31:44;;;;;;;14.07;7.00;;;6.20;99.90;;;;;;4991647;28;20037;-61
2022/01/24 14:34:18;;;;;;;13.52;6.32;;;6.10;99.90;;;;;;4993666;28;20034;-63
2022/01/24 14:36:55;;;;;;;16.05;7.32;;;6.10;99.90;;;;;;4997922;28;20128;-63
2022/01/24 14:39:21;;;;;;;15.93;6.60;;;6.10;99.90;;;;;;4994943;28;20034;-66
2022/01/24 14:41:49;;;;;;;12.18;6.57;;;6.10;99.90;;;;;;4995997;28;20030;-62
2022/01/24 14:47:02;;;;;;;14.43;5.82;;;6.00;99.90;;;;;;4997647;28;20041;-63
2022/01/24 14:49:31;;;;;;;14.75;6.63;;;6.00;99.90;;;;;;4993673;28;20133;-63
2022/01/24 14:52:05;;;;;;;13.43;6.65;;;6.00;99.90;;;;;;4992035;28;20080;-61
2022/01/24 14:54:34;;;;;;;19.05;7.20;;;5.90;99.90;;;;;;4997980;28;20034;-62